Time;durP1;ratioP1;P1;durP2;ratioP2;P2;SDS_P1;SDS_P2;PMS_P1;PMS_P2;Temp;Humidity;BMP_temperature;BMP_pressure;BME280_temperature;BME280_humidity;BME280_pressure;Samples;Min_cycle;Max_cycle;Signal;HPM_P1;HPM_P2
2021/01/15 00:00:15;;;;;;;0.10;0.10;;;0.30;99.90;;;;;;5013481;28;20204;-80
2021/01/15 00:02:41;;;;;;;0.10;0.10;;;0.30;99.90;;;;;;5014111;28;20198;-81
2021/01/15 00:05:07;;;;;;;0.23;0.20;;;0.30;99.90;;;;;;5015230;28;20268;-81
2021/01/15 00:07:32;;;;;;;0.10;0.10;;;0.30;99.90;;;;;;5016131;28;20188;-81
2021/01/15 00:09:58;;;;;;;0.30;0.30;;;0.30;99.90;;;;;;5013469;28;20195;-81
2021/01/15 00:12:23;;;;;;;0.10;0.10;;;0.30;99.90;;;;;;5016697;28;20198;-80
2021/01/15 00:14:49;;;;;;;0.17;0.17;;;0.20;99.90;;;;;;5015347;28;20206;-81
2021/01/15 00:17:14;;;;;;;0.07;0.07;;;0.20;99.90;;;;;;5015805;28;20546;-78
2021/01/15 00:19:40;;;;;;;0.33;0.10;;;0.20;99.90;;;;;;5014788;28;20227;-80
2021/01/15 00:22:06;;;;;;;0.10;0.10;;;0.20;99.90;;;;;;5028436;28;20198;-81
2021/01/15 00:24:31;;;;;;;1.10;1.10;;;0.20;99.90;;;;;;5014272;28;20256;-81
2021/01/15 00:26:57;;;;;;;0.10;0.10;;;0.20;99.90;;;;;;5014518;28;20249;-80
2021/01/15 00:29:23;;;;;;;3.20;1.17;;;0.20;99.90;;;;;;5015333;28;20209;-81
2021/01/15 00:31:48;;;;;;;0.07;0.07;;;0.20;99.90;;;;;;5013350;28;20230;-81
2021/01/15 00:34:16;;;;;;;0.20;0.20;;;0.20;99.90;;;;;;5013904;28;20211;-81
2021/01/15 00:36:44;;;;;;;0.20;0.20;;;0.20;99.90;;;;;;5015860;28;20182;-81
2021/01/15 00:39:10;;;;;;;0.10;0.10;;;0.20;99.90;;;;;;5016396;28;20236;-81
2021/01/15 00:41:37;;;;;;;0.30;0.30;;;0.10;99.90;;;;;;5014069;28;20198;-81
2021/01/15 00:44:04;;;;;;;0.20;0.20;;;0.10;99.90;;;;;;5013876;28;20211;-81
2021/01/15 00:46:33;;;;;;;0.20;0.20;;;0.10;99.90;;;;;;5015744;28;20203;-81
2021/01/15 00:49:05;;;;;;;0.10;0.10;;;0.00;99.90;;;;;;5013880;28;20207;-79
2021/01/15 00:51:34;;;;;;;0.17;0.17;;;0.00;99.90;;;;;;5013992;28;20197;-81
2021/01/15 00:54:00;;;;;;;0.10;0.10;;;0.00;99.90;;;;;;5014795;28;20571;-81
2021/01/15 00:56:26;;;;;;;0.10;0.10;;;0.00;99.90;;;;;;5013590;28;20190;-81
2021/01/15 00:58:51;;;;;;;0.20;0.13;;;0.00;99.90;;;;;;5013993;28;20552;-80
2021/01/15 01:01:19;;;;;;;0.20;0.20;;;0.00;99.90;;;;;;5014218;28;20193;-79
2021/01/15 01:03:46;;;;;;;0.00;0.00;;;0.00;99.90;;;;;;5015052;28;20191;-79
2021/01/15 01:06:14;;;;;;;0.30;0.30;;;0.00;99.90;;;;;;5015525;28;20627;-80
2021/01/15 01:08:40;;;;;;;0.10;0.10;;;0.00;99.90;;;;;;5013271;28;20217;-81
2021/01/15 01:11:18;;;;;;;0.40;0.40;;;0.00;99.90;;;;;;5013172;28;20192;-81
2021/01/15 01:13:45;;;;;;;0.10;0.10;;;-0.10;99.90;;;;;;5014437;28;20197;-79
2021/01/15 01:16:16;;;;;;;0.50;0.50;;;-0.10;99.90;;;;;;5014688;28;20224;-80
2021/01/15 01:18:42;;;;;;;0.10;0.10;;;-0.10;99.90;;;;;;5016127;28;20187;-79
2021/01/15 01:21:09;;;;;;;0.10;0.10;;;-0.10;99.90;;;;;;5013427;28;20197;-80
2021/01/15 01:23:34;;;;;;;0.10;0.10;;;-0.10;99.90;;;;;;5016063;28;20562;-80
2021/01/15 01:26:00;;;;;;;0.10;0.10;;;-0.10;99.90;;;;;;5015284;28;20317;-80
2021/01/15 01:28:25;;;;;;;0.17;0.17;;;-0.10;99.90;;;;;;5012261;28;20219;-79
2021/01/15 01:30:51;;;;;;;0.20;0.20;;;-0.10;99.90;;;;;;5010030;28;20237;-81
2021/01/15 01:33:16;;;;;;;0.37;0.37;;;-0.10;99.90;;;;;;5012865;28;20196;-81
2021/01/15 01:35:42;;;;;;;0.10;0.10;;;-0.10;99.90;;;;;;5009586;28;20214;-80
2021/01/15 01:38:08;;;;;;;0.10;0.10;;;-0.10;99.90;;;;;;5008513;28;20713;-81
2021/01/15 01:40:34;;;;;;;0.63;0.63;;;-0.10;99.90;;;;;;5008160;28;20201;-80
2021/01/15 01:43:00;;;;;;;0.07;0.07;;;-0.20;99.90;;;;;;5008560;28;20214;-81
2021/01/15 01:45:25;;;;;;;0.10;0.10;;;-0.20;99.90;;;;;;5010019;28;20210;-81
2021/01/15 01:47:53;;;;;;;0.10;0.10;;;-0.10;99.90;;;;;;5010860;28;20615;-80
2021/01/15 01:50:18;;;;;;;0.10;0.10;;;-0.10;99.90;;;;;;5008340;28;20273;-81
2021/01/15 01:52:44;;;;;;;0.10;0.10;;;-0.10;99.90;;;;;;5009395;28;20296;-81
2021/01/15 01:55:12;;;;;;;0.20;0.20;;;-0.10;99.90;;;;;;5007807;28;20218;-81
2021/01/15 01:57:38;;;;;;;0.10;0.10;;;-0.10;99.90;;;;;;5011724;28;20225;-79
2021/01/15 02:00:06;;;;;;;0.10;0.10;;;-0.10;99.90;;;;;;5008795;28;20183;-81
2021/01/15 02:02:31;;;;;;;0.10;0.10;;;-0.10;99.90;;;;;;5011541;28;20190;-82
2021/01/15 02:04:57;;;;;;;0.10;0.10;;;-0.10;99.90;;;;;;5009764;28;20210;-81
2021/01/15 02:07:22;;;;;;;0.13;0.13;;;-0.20;99.90;;;;;;5010218;28;20197;-82
2021/01/15 02:10:19;;;;;;;0.20;0.20;;;-0.20;99.90;;;;;;5010483;28;20481;-81
2021/01/15 02:12:57;;;;;;;0.10;0.10;;;-0.20;99.90;;;;;;5013190;28;20198;-82
2021/01/15 02:15:38;;;;;;;0.10;0.10;;;-0.20;99.90;;;;;;5011142;28;20264;-81
2021/01/15 02:18:10;;;;;;;0.10;0.10;;;-0.20;99.90;;;;;;5009899;28;20278;-81
2021/01/15 02:21:14;;;;;;;0.10;0.10;;;-0.10;99.90;;;;;;5008896;28;20766;-79
2021/01/15 02:23:41;;;;;;;0.13;0.13;;;-0.10;99.90;;;;;;5009866;28;20186;-81
2021/01/15 02:26:42;;;;;;;0.10;0.10;;;0.00;99.90;;;;;;5010846;28;20194;-81
2021/01/15 02:29:15;;;;;;;0.30;0.30;;;-0.10;99.90;;;;;;4951418;28;20301;-81
2021/01/15 02:31:46;;;;;;;0.10;0.10;;;0.00;99.90;;;;;;5000788;28;20210;-82
2021/01/15 02:34:31;;;;;;;0.07;0.07;;;0.00;99.90;;;;;;5026381;28;20198;-79
2021/01/15 02:37:08;;;;;;;0.00;0.00;;;0.10;99.90;;;;;;5008803;28;20181;-81
2021/01/15 02:39:59;;;;;;;0.10;0.10;;;0.10;99.90;;;;;;5013340;28;20183;-81
2021/01/15 02:42:25;;;;;;;0.50;0.33;;;0.00;99.90;;;;;;5025739;28;20205;-80
2021/01/15 02:44:53;;;;;;;0.10;0.10;;;0.10;99.90;;;;;;5000494;28;20209;-80
2021/01/15 02:47:31;;;;;;;0.20;0.20;;;0.20;99.90;;;;;;5009315;28;20221;-79
2021/01/15 02:49:58;;;;;;;0.10;0.10;;;0.20;99.90;;;;;;5009408;28;20206;-81
2021/01/15 02:52:24;;;;;;;0.20;0.20;;;0.20;99.90;;;;;;5009413;28;20186;-81
2021/01/15 02:54:50;;;;;;;0.10;0.10;;;0.20;99.90;;;;;;5008539;28;20735;-81
2021/01/15 02:57:16;;;;;;;0.33;0.33;;;0.30;99.90;;;;;;5009236;28;20209;-82
2021/01/15 02:59:41;;;;;;;0.10;0.10;;;0.20;99.90;;;;;;5008814;28;20184;-82
2021/01/15 03:02:30;;;;;;;0.10;0.10;;;0.20;99.90;;;;;;5005959;28;20652;-81
2021/01/15 03:04:58;;;;;;;0.40;0.20;;;0.20;99.90;;;;;;5008609;28;20203;-81
2021/01/15 03:07:25;;;;;;;0.10;0.10;;;0.20;99.90;;;;;;5008886;28;20195;-82
2021/01/15 03:09:54;;;;;;;0.17;0.17;;;0.10;99.90;;;;;;5006841;28;20218;-80
2021/01/15 03:12:24;;;;;;;0.40;0.40;;;0.10;99.90;;;;;;5008705;28;20184;-80
2021/01/15 03:14:50;;;;;;;0.63;0.53;;;0.20;99.90;;;;;;5008770;28;20277;-81
2021/01/15 03:17:22;;;;;;;0.20;0.20;;;0.20;99.90;;;;;;5008315;28;20182;-81
2021/01/15 03:19:48;;;;;;;0.10;0.10;;;0.20;99.90;;;;;;5007604;28;20225;-81
2021/01/15 03:22:15;;;;;;;0.20;0.20;;;0.10;99.90;;;;;;5006811;28;20273;-79
2021/01/15 03:24:55;;;;;;;0.10;0.10;;;0.10;99.90;;;;;;5010331;28;20222;-82
2021/01/15 03:27:23;;;;;;;0.10;0.10;;;0.10;99.90;;;;;;5012525;28;20194;-80
2021/01/15 03:29:48;;;;;;;0.30;0.30;;;0.10;99.90;;;;;;5007954;28;20218;-81
2021/01/15 03:32:15;;;;;;;0.00;0.00;;;0.20;99.90;;;;;;5011718;28;20285;-81
2021/01/15 03:34:41;;;;;;;0.10;0.10;;;0.20;99.90;;;;;;5013246;28;20210;-79
2021/01/15 03:37:07;;;;;;;0.10;0.10;;;0.30;99.90;;;;;;5011253;28;20197;-83
2021/01/15 03:39:38;;;;;;;0.07;0.07;;;0.40;99.90;;;;;;5026529;28;20249;-80
2021/01/15 03:42:03;;;;;;;0.20;0.20;;;0.40;99.90;;;;;;5013936;28;20210;-81
2021/01/15 03:44:29;;;;;;;0.10;0.10;;;0.50;99.90;;;;;;5012488;28;20214;-76
2021/01/15 03:46:55;;;;;;;0.10;0.10;;;0.60;99.90;;;;;;5013810;28;20197;-81
2021/01/15 03:49:21;;;;;;;0.10;0.10;;;0.60;99.90;;;;;;5013255;28;20214;-82
2021/01/15 03:51:47;;;;;;;0.20;0.20;;;0.60;99.90;;;;;;5013133;28;20203;-82
2021/01/15 03:54:13;;;;;;;0.10;0.10;;;0.60;99.90;;;;;;5011322;28;20203;-82
2021/01/15 03:56:39;;;;;;;0.10;0.10;;;0.60;99.90;;;;;;5002714;28;20199;-82
2021/01/15 03:59:05;;;;;;;0.13;0.13;;;0.70;99.90;;;;;;5011735;28;20241;-81
2021/01/15 04:01:32;;;;;;;0.10;0.10;;;0.70;99.90;;;;;;5003952;28;20195;-82
2021/01/15 04:03:57;;;;;;;0.10;0.10;;;0.70;99.90;;;;;;4993841;28;20183;-83
2021/01/15 04:06:24;;;;;;;0.20;0.20;;;0.70;99.90;;;;;;4999293;28;20199;-82
2021/01/15 04:08:50;;;;;;;0.10;0.10;;;0.70;99.90;;;;;;5009606;28;20211;-82
2021/01/15 04:11:15;;;;;;;0.07;0.07;;;0.70;99.90;;;;;;5011258;28;20542;-82
2021/01/15 04:13:41;;;;;;;0.10;0.10;;;0.80;99.90;;;;;;5008959;28;20180;-82
2021/01/15 04:16:06;;;;;;;0.10;0.10;;;0.80;99.90;;;;;;5013479;28;20544;-82
2021/01/15 04:18:32;;;;;;;0.20;0.20;;;0.80;99.90;;;;;;5009488;28;20195;-82
2021/01/15 04:20:57;;;;;;;0.50;0.50;;;0.90;99.90;;;;;;5007374;28;20226;-82
2021/01/15 04:23:23;;;;;;;0.10;0.10;;;0.90;99.90;;;;;;5006798;28;20286;-81
2021/01/15 04:25:48;;;;;;;0.10;0.10;;;0.90;99.90;;;;;;5011802;28;20364;-82
2021/01/15 04:28:14;;;;;;;0.10;0.10;;;0.80;99.90;;;;;;5012327;28;20210;-82
2021/01/15 04:30:40;;;;;;;0.83;0.37;;;0.90;99.90;;;;;;5007193;28;20203;-80
2021/01/15 04:33:05;;;;;;;0.43;0.43;;;0.90;99.90;;;;;;4995584;28;20184;-82
2021/01/15 04:35:31;;;;;;;0.10;0.10;;;0.90;99.90;;;;;;5004390;28;20225;-82
2021/01/15 04:37:56;;;;;;;0.27;0.27;;;0.90;99.90;;;;;;5010495;28;20182;-82
2021/01/15 04:40:22;;;;;;;0.30;0.30;;;0.90;99.90;;;;;;5005664;28;20198;-81
2021/01/15 04:42:48;;;;;;;0.17;0.17;;;0.90;99.90;;;;;;5010097;28;20186;-82
2021/01/15 04:45:15;;;;;;;0.30;0.30;;;0.90;99.90;;;;;;5009771;28;20211;-81
2021/01/15 04:47:43;;;;;;;0.33;0.33;;;1.00;99.90;;;;;;5008414;28;20218;-82
2021/01/15 04:50:11;;;;;;;0.37;0.33;;;0.90;99.90;;;;;;5005463;28;20186;-79
2021/01/15 04:52:53;;;;;;;0.50;0.30;;;1.00;99.90;;;;;;5022054;28;20564;-80
2021/01/15 04:55:21;;;;;;;0.43;0.43;;;1.00;99.90;;;;;;5009803;28;20203;-82
2021/01/15 04:57:52;;;;;;;0.53;0.50;;;1.00;99.90;;;;;;5000514;28;20651;-82
2021/01/15 05:00:20;;;;;;;1.53;0.43;;;1.00;99.90;;;;;;5010395;28;20187;-82
2021/01/15 05:02:47;;;;;;;1.40;1.27;;;1.00;99.90;;;;;;5012454;28;20187;-81
2021/01/15 05:05:24;;;;;;;0.10;0.10;;;1.00;99.90;;;;;;5012541;28;20687;-82
2021/01/15 05:08:12;;;;;;;0.60;0.60;;;1.10;99.90;;;;;;5011194;28;20183;-82
2021/01/15 05:10:43;;;;;;;0.07;0.07;;;1.10;99.90;;;;;;4994060;28;20203;-82
2021/01/15 05:13:11;;;;;;;0.20;0.13;;;1.10;99.90;;;;;;5012265;28;20187;-82
2021/01/15 05:15:38;;;;;;;0.40;0.40;;;1.10;99.90;;;;;;5048596;23;20261;-84
2021/01/15 05:18:07;;;;;;;0.37;0.37;;;1.10;99.90;;;;;;5037409;28;20187;-84
2021/01/15 05:20:33;;;;;;;0.30;0.30;;;1.10;99.90;;;;;;5043617;28;20186;-84
2021/01/15 05:23:07;;;;;;;0.10;0.10;;;1.10;99.90;;;;;;5044197;28;20186;-84
2021/01/15 05:25:34;;;;;;;0.20;0.20;;;1.10;99.90;;;;;;5037882;28;20201;-86
2021/01/15 05:28:00;;;;;;;0.10;0.10;;;1.10;99.90;;;;;;5034726;28;20253;-84
2021/01/15 05:30:27;;;;;;;0.10;0.10;;;1.10;99.90;;;;;;5034754;28;20178;-83
2021/01/15 05:32:58;;;;;;;0.20;0.20;;;1.10;99.90;;;;;;5036585;28;20217;-83
2021/01/15 05:35:40;;;;;;;0.67;0.23;;;1.10;99.90;;;;;;5045072;28;20260;-83
2021/01/15 05:38:05;;;;;;;0.20;0.20;;;1.10;99.90;;;;;;5047342;28;20205;-84
2021/01/15 05:40:43;;;;;;;0.13;0.13;;;1.10;99.90;;;;;;5048380;28;20190;-84
2021/01/15 05:43:33;;;;;;;0.20;0.20;;;1.10;99.90;;;;;;5046772;28;20220;-83
2021/01/15 05:46:05;;;;;;;0.23;0.23;;;1.10;99.90;;;;;;5033943;28;20202;-83
2021/01/15 05:48:31;;;;;;;0.17;0.13;;;1.10;99.90;;;;;;5018418;28;20224;-84
2021/01/15 05:50:57;;;;;;;0.10;0.10;;;1.10;99.90;;;;;;5026611;28;20174;-84
2021/01/15 05:53:23;;;;;;;0.20;0.20;;;1.10;99.90;;;;;;5031981;28;20694;-82
2021/01/15 05:55:58;;;;;;;0.10;0.10;;;1.10;99.90;;;;;;5035716;28;20757;-82
2021/01/15 05:58:24;;;;;;;0.10;0.10;;;1.10;99.90;;;;;;5030870;28;20260;-83
2021/01/15 06:00:53;;;;;;;0.10;0.10;;;1.10;99.90;;;;;;5024908;28;20257;-82
2021/01/15 06:03:22;;;;;;;2.90;0.20;;;1.00;99.90;;;;;;5030406;28;20233;-82
2021/01/15 06:05:49;;;;;;;0.13;0.13;;;1.00;99.90;;;;;;5040061;28;20202;-82
2021/01/15 06:08:14;;;;;;;0.20;0.20;;;1.00;99.90;;;;;;5040968;28;20573;-82
2021/01/15 06:10:46;;;;;;;0.50;0.50;;;1.00;99.90;;;;;;5027486;28;20198;-82
2021/01/15 06:13:38;;;;;;;1.23;0.20;;;1.00;99.90;;;;;;5042688;28;20187;-82
2021/01/15 06:16:05;;;;;;;0.30;0.30;;;1.00;99.90;;;;;;5017620;28;20333;-83
2021/01/15 06:18:31;;;;;;;0.10;0.10;;;1.00;99.90;;;;;;5030388;28;20186;-82
2021/01/15 06:21:07;;;;;;;0.23;0.23;;;1.00;99.90;;;;;;5026967;28;20190;-80
2021/01/15 06:23:39;;;;;;;0.37;0.23;;;1.00;99.90;;;;;;5027057;28;20190;-84
2021/01/15 06:26:08;;;;;;;0.10;0.10;;;0.90;99.90;;;;;;5030126;28;20255;-83
2021/01/15 06:28:34;;;;;;;0.37;0.37;;;0.90;99.90;;;;;;5030232;28;20292;-82
2021/01/15 06:31:07;;;;;;;0.60;0.60;;;0.90;99.90;;;;;;5030792;28;20187;-86
2021/01/15 06:33:32;;;;;;;0.63;0.53;;;0.90;99.90;;;;;;5030037;28;20183;-86
2021/01/15 06:35:58;;;;;;;0.60;0.60;;;0.90;99.90;;;;;;5033399;28;20297;-85
2021/01/15 06:38:29;;;;;;;0.13;0.13;;;0.90;99.90;;;;;;5029740;28;20627;-86
2021/01/15 06:40:56;;;;;;;0.37;0.37;;;0.90;99.90;;;;;;5044900;28;20186;-86
2021/01/15 06:43:29;;;;;;;1.07;0.47;;;0.90;99.90;;;;;;5028808;28;20611;-86
2021/01/15 06:46:00;;;;;;;0.23;0.23;;;0.90;99.90;;;;;;5022829;28;20218;-85
2021/01/15 06:48:34;;;;;;;0.63;0.40;;;0.90;99.90;;;;;;5022759;28;20217;-85
2021/01/15 06:51:01;;;;;;;0.37;0.37;;;0.90;99.90;;;;;;5027147;28;20190;-86
2021/01/15 06:53:31;;;;;;;0.20;0.20;;;0.90;99.90;;;;;;5027813;28;20197;-87
2021/01/15 06:56:01;;;;;;;0.10;0.10;;;0.90;99.90;;;;;;5031275;28;20206;-87
2021/01/15 06:58:39;;;;;;;0.00;0.00;;;0.90;99.90;;;;;;5031250;28;20194;-87
2021/01/15 07:01:17;;;;;;;0.10;0.10;;;1.00;99.90;;;;;;5032355;28;20269;-87
2021/01/15 07:03:46;;;;;;;0.03;0.03;;;1.00;99.90;;;;;;5033420;28;20680;-87
2021/01/15 07:06:28;;;;;;;0.30;0.30;;;1.00;99.90;;;;;;5036351;28;20210;-87
2021/01/15 07:08:59;;;;;;;0.97;0.97;;;1.00;99.90;;;;;;5041822;28;20233;-87
2021/01/15 07:11:27;;;;;;;0.60;0.20;;;1.00;99.90;;;;;;5032762;28;20285;-87
2021/01/15 07:13:55;;;;;;;0.80;0.80;;;0.90;99.90;;;;;;5022678;28;20244;-86
2021/01/15 07:16:28;;;;;;;0.53;0.53;;;0.90;99.90;;;;;;5034957;28;20695;-87
2021/01/15 07:19:06;;;;;;;0.80;0.80;;;0.90;99.90;;;;;;5048569;28;20182;-86
2021/01/15 07:21:55;;;;;;;0.10;0.10;;;0.90;99.90;;;;;;5039953;28;20201;-86
2021/01/15 07:24:28;;;;;;;0.30;0.30;;;0.90;99.90;;;;;;5028314;28;20182;-86
2021/01/15 07:26:53;;;;;;;0.40;0.40;;;0.80;99.90;;;;;;5040783;28;20218;-86
2021/01/15 07:29:20;;;;;;;0.23;0.23;;;0.80;99.90;;;;;;5039295;28;20218;-86
2021/01/15 07:31:50;;;;;;;0.20;0.20;;;0.80;99.90;;;;;;5042485;28;20564;-85
2021/01/15 07:34:18;;;;;;;1.03;0.63;;;0.70;99.90;;;;;;5040658;28;20182;-87
2021/01/15 07:36:44;;;;;;;0.13;0.13;;;0.70;99.90;;;;;;5037134;28;20538;-87
2021/01/15 07:39:15;;;;;;;0.67;0.37;;;0.70;99.90;;;;;;5046001;28;20676;-86
2021/01/15 07:41:49;;;;;;;0.10;0.10;;;0.60;99.90;;;;;;5038304;28;20191;-87
2021/01/15 07:44:21;;;;;;;0.27;0.27;;;0.70;99.90;;;;;;5030664;28;20276;-86
2021/01/15 07:46:54;;;;;;;0.20;0.20;;;0.70;99.90;;;;;;5031184;28;20195;-87
2021/01/15 07:49:20;;;;;;;0.33;0.33;;;0.70;99.90;;;;;;5032257;28;20213;-83
2021/01/15 07:52:04;;;;;;;0.43;0.43;;;0.70;99.90;;;;;;5021344;28;20189;-85
2021/01/15 07:55:06;;;;;;;0.67;0.33;;;0.70;99.90;;;;;;5035521;28;20300;-82
2021/01/15 07:57:32;;;;;;;0.50;0.43;;;0.70;99.90;;;;;;5036904;28;20737;-84
2021/01/15 08:00:21;;;;;;;0.93;0.43;;;0.80;99.90;;;;;;5046560;28;20190;-85
2021/01/15 08:02:47;;;;;;;0.43;0.43;;;0.80;99.90;;;;;;5047763;28;20198;-85
2021/01/15 08:05:12;;;;;;;1.30;0.70;;;0.90;99.90;;;;;;5031194;28;20221;-85
2021/01/15 08:07:38;;;;;;;0.27;0.27;;;0.80;99.90;;;;;;5032233;28;20220;-84
2021/01/15 08:10:09;;;;;;;0.20;0.20;;;0.90;99.90;;;;;;5025672;28;20591;-85
2021/01/15 08:12:40;;;;;;;3.00;0.53;;;0.90;99.90;;;;;;5037338;28;20599;-85
2021/01/15 08:15:27;;;;;;;0.53;0.37;;;1.00;99.90;;;;;;5032043;28;20582;-87
2021/01/15 08:17:53;;;;;;;0.50;0.50;;;1.10;99.90;;;;;;5039854;28;20186;-86
2021/01/15 08:20:19;;;;;;;1.90;0.20;;;1.10;99.90;;;;;;5050339;28;20248;-86
2021/01/15 08:22:47;;;;;;;2.53;0.87;;;1.10;99.90;;;;;;5038963;28;20537;-85
2021/01/15 08:25:31;;;;;;;0.20;0.20;;;1.10;99.90;;;;;;5037429;28;20788;-85
2021/01/15 08:27:58;;;;;;;0.20;0.20;;;1.20;99.90;;;;;;5041237;28;20205;-85
2021/01/15 08:30:24;;;;;;;0.93;0.60;;;1.20;99.90;;;;;;5038831;28;20575;-85
2021/01/15 08:32:50;;;;;;;0.27;0.27;;;1.30;99.90;;;;;;5038366;28;20183;-85
2021/01/15 08:35:24;;;;;;;0.53;0.53;;;1.20;99.90;;;;;;5036493;28;20703;-85
2021/01/15 08:38:01;;;;;;;1.17;0.70;;;1.30;99.90;;;;;;5043666;28;20176;-86
2021/01/15 08:40:38;;;;;;;0.10;0.10;;;1.40;99.90;;;;;;5020791;28;20178;-85
2021/01/15 08:43:05;;;;;;;0.17;0.17;;;1.50;99.90;;;;;;5045134;28;20185;-86
2021/01/15 08:45:31;;;;;;;0.40;0.40;;;1.70;99.90;;;;;;5033426;28;20198;-85
2021/01/15 08:47:57;;;;;;;0.37;0.23;;;1.70;99.90;;;;;;5049279;28;20236;-85
2021/01/15 08:50:24;;;;;;;0.30;0.30;;;1.80;99.90;;;;;;5043927;28;20193;-85
2021/01/15 08:52:51;;;;;;;0.77;0.47;;;1.80;99.90;;;;;;5035442;28;20186;-85
2021/01/15 08:55:17;;;;;;;0.40;0.40;;;1.90;99.90;;;;;;5033205;28;20351;-85
2021/01/15 08:57:44;;;;;;;0.20;0.20;;;1.80;99.90;;;;;;5053479;28;20277;-86
2021/01/15 09:00:15;;;;;;;0.20;0.20;;;1.70;99.90;;;;;;5034258;28;20639;-86
2021/01/15 09:02:42;;;;;;;0.77;0.40;;;1.80;99.90;;;;;;5033509;28;20186;-86
2021/01/15 09:05:10;;;;;;;0.60;0.47;;;2.00;99.90;;;;;;5032467;28;20204;-85
2021/01/15 09:07:51;;;;;;;0.40;0.40;;;1.90;99.90;;;;;;5032591;28;20285;-86
2021/01/15 09:10:18;;;;;;;0.43;0.43;;;1.90;99.90;;;;;;5030136;28;20182;-86
2021/01/15 09:12:46;;;;;;;0.30;0.30;;;2.00;99.90;;;;;;5043042;28;20232;-85
2021/01/15 09:15:24;;;;;;;0.73;0.73;;;2.10;99.90;;;;;;5031222;28;20245;-85
2021/01/15 09:17:50;;;;;;;0.17;0.17;;;2.20;99.90;;;;;;5031572;28;20591;-84
2021/01/15 09:20:19;;;;;;;0.67;0.50;;;2.40;99.90;;;;;;5029452;28;20190;-84
2021/01/15 09:22:45;;;;;;;1.13;0.57;;;2.40;99.90;;;;;;5029804;28;20266;-84
2021/01/15 09:25:13;;;;;;;0.20;0.20;;;2.60;99.90;;;;;;5033740;28;20190;-84
2021/01/15 09:27:39;;;;;;;0.30;0.30;;;2.60;99.90;;;;;;5028835;28;20186;-85
2021/01/15 09:30:05;;;;;;;0.77;0.77;;;2.60;99.90;;;;;;5041739;28;20674;-82
2021/01/15 09:32:30;;;;;;;0.30;0.30;;;2.60;99.90;;;;;;5027189;28;20593;-84
2021/01/15 09:34:56;;;;;;;2.33;0.30;;;2.60;99.90;;;;;;5045788;28;20244;-82
2021/01/15 09:37:21;;;;;;;1.10;0.30;;;2.30;99.90;;;;;;5029498;28;20189;-85
2021/01/15 09:39:47;;;;;;;1.17;0.77;;;2.30;99.90;;;;;;5033518;28;20213;-85
2021/01/15 09:42:14;;;;;;;0.40;0.27;;;2.30;99.90;;;;;;5032292;28;20541;-85
2021/01/15 09:44:40;;;;;;;1.10;0.53;;;2.00;99.90;;;;;;5047197;28;20245;-85
2021/01/15 09:47:06;;;;;;;0.20;0.20;;;2.10;99.90;;;;;;5024820;28;20209;-85
2021/01/15 09:49:32;;;;;;;0.10;0.10;;;2.10;99.90;;;;;;5029831;28;20352;-87
2021/01/15 09:51:59;;;;;;;0.60;0.60;;;2.00;99.90;;;;;;5030118;28;20190;-85
2021/01/15 09:54:24;;;;;;;1.30;0.73;;;2.00;99.90;;;;;;5043496;28;20178;-85
2021/01/15 09:56:50;;;;;;;0.53;0.53;;;1.90;99.90;;;;;;5047472;28;20187;-84
2021/01/15 09:59:18;;;;;;;0.50;0.33;;;2.10;99.90;;;;;;5031361;28;20232;-85
2021/01/15 10:01:45;;;;;;;0.20;0.20;;;2.10;99.90;;;;;;5033360;28;20186;-84
2021/01/15 10:04:10;;;;;;;0.20;0.20;;;2.00;99.90;;;;;;5030085;28;20202;-84
2021/01/15 10:06:37;;;;;;;1.00;0.33;;;2.00;99.90;;;;;;5047169;28;20563;-85
2021/01/15 10:09:04;;;;;;;0.33;0.33;;;1.90;99.90;;;;;;5027453;28;20206;-84
2021/01/15 10:11:31;;;;;;;0.20;0.20;;;2.00;99.90;;;;;;5039600;28;20817;-84
2021/01/15 10:13:59;;;;;;;0.20;0.20;;;2.00;99.90;;;;;;5029348;28;20739;-85
2021/01/15 10:16:25;;;;;;;0.50;0.50;;;2.00;99.90;;;;;;5027526;28;20216;-84
2021/01/15 10:18:51;;;;;;;3.53;1.10;;;2.20;99.90;;;;;;5030546;28;20190;-85
2021/01/15 10:21:22;;;;;;;1.50;0.40;;;2.30;99.90;;;;;;5024830;28;20694;-84
2021/01/15 10:23:48;;;;;;;0.30;0.30;;;2.30;99.90;;;;;;5028627;28;20219;-86
2021/01/15 10:26:22;;;;;;;0.10;0.10;;;2.10;99.90;;;;;;5046871;28;20422;-85
2021/01/15 10:28:47;;;;;;;0.50;0.50;;;2.30;99.90;;;;;;5028955;28;20202;-85
2021/01/15 10:31:13;;;;;;;1.00;0.90;;;2.40;99.90;;;;;;5026759;28;20192;-85
2021/01/15 10:33:38;;;;;;;2.20;1.37;;;2.60;99.90;;;;;;5027295;28;20623;-86
2021/01/15 10:36:08;;;;;;;1.10;0.67;;;2.50;99.90;;;;;;5028885;28;20629;-84
2021/01/15 10:38:33;;;;;;;1.83;1.27;;;2.50;99.90;;;;;;5029145;28;20570;-84
2021/01/15 10:40:59;;;;;;;0.37;0.37;;;2.60;99.90;;;;;;5033161;28;20193;-85
2021/01/15 10:43:25;;;;;;;0.40;0.40;;;2.50;99.90;;;;;;5034845;28;20200;-82
2021/01/15 10:45:50;;;;;;;0.30;0.30;;;2.80;99.90;;;;;;5048896;28;20206;-84
2021/01/15 10:48:16;;;;;;;0.30;0.30;;;3.00;99.90;;;;;;5031823;28;20208;-85
2021/01/15 10:50:42;;;;;;;1.07;1.07;;;2.70;99.90;;;;;;5033352;28;20233;-82
2021/01/15 10:53:08;;;;;;;0.30;0.30;;;2.60;99.90;;;;;;5052066;28;20182;-85
2021/01/15 10:55:33;;;;;;;2.10;1.63;;;2.80;99.90;;;;;;5030145;28;20205;-82
2021/01/15 10:57:59;;;;;;;0.60;0.60;;;2.80;99.90;;;;;;5032414;28;20266;-83
2021/01/15 11:00:24;;;;;;;0.33;0.33;;;2.90;99.90;;;;;;5023971;28;20227;-85
2021/01/15 11:02:50;;;;;;;1.13;0.70;;;2.70;99.90;;;;;;5050160;28;20182;-85
2021/01/15 11:05:16;;;;;;;0.50;0.50;;;2.50;99.90;;;;;;5036099;28;20201;-86
2021/01/15 11:07:44;;;;;;;0.30;0.30;;;2.70;99.90;;;;;;5034832;28;20191;-86
2021/01/15 11:10:11;;;;;;;0.60;0.60;;;2.80;99.90;;;;;;5034828;28;20210;-85
2021/01/15 11:12:36;;;;;;;0.43;0.30;;;2.70;99.90;;;;;;5034618;28;20182;-83
2021/01/15 11:15:03;;;;;;;0.00;0.00;;;2.80;99.90;;;;;;5037090;28;20224;-85
2021/01/15 11:17:28;;;;;;;0.43;0.43;;;2.80;99.90;;;;;;5035126;28;20198;-83
2021/01/15 11:19:54;;;;;;;0.53;0.20;;;2.90;99.90;;;;;;5051440;28;20191;-83
2021/01/15 11:22:20;;;;;;;2.27;1.23;;;2.80;99.90;;;;;;5039383;28;20593;-85
2021/01/15 11:24:45;;;;;;;0.30;0.30;;;3.00;99.90;;;;;;5034232;28;20255;-83
2021/01/15 11:27:11;;;;;;;0.57;0.50;;;3.00;99.90;;;;;;5034010;28;20239;-87
2021/01/15 11:29:36;;;;;;;0.20;0.20;;;2.70;99.90;;;;;;5049862;28;20248;-83
2021/01/15 11:32:02;;;;;;;0.63;0.57;;;2.70;99.90;;;;;;5049509;28;20210;-86
2021/01/15 11:34:28;;;;;;;0.90;0.90;;;2.60;99.90;;;;;;5032725;28;20231;-85
2021/01/15 11:36:54;;;;;;;0.20;0.20;;;2.60;99.90;;;;;;5058613;28;20561;-85
2021/01/15 11:39:20;;;;;;;0.73;0.50;;;2.60;99.90;;;;;;5027885;28;20211;-85
2021/01/15 11:41:51;;;;;;;0.87;0.80;;;2.60;99.90;;;;;;5033983;28;20263;-86
2021/01/15 11:44:18;;;;;;;0.50;0.50;;;2.70;99.90;;;;;;5034484;28;20594;-86
2021/01/15 11:46:43;;;;;;;0.30;0.30;;;2.90;99.90;;;;;;5029058;28;20202;-83
2021/01/15 11:49:09;;;;;;;0.20;0.20;;;3.00;99.90;;;;;;5032312;28;20300;-85
2021/01/15 11:51:34;;;;;;;0.20;0.20;;;3.20;99.90;;;;;;5027961;28;20189;-86
2021/01/15 11:54:00;;;;;;;0.40;0.40;;;2.90;99.90;;;;;;5030449;28;20261;-85
2021/01/15 11:56:26;;;;;;;3.30;0.30;;;2.80;99.90;;;;;;5035164;28;20243;-86
2021/01/15 11:58:51;;;;;;;0.20;0.20;;;2.90;99.90;;;;;;5035691;28;20191;-83
2021/01/15 12:01:20;;;;;;;0.63;0.63;;;2.80;99.90;;;;;;5033015;28;20190;-85
2021/01/15 12:03:45;;;;;;;0.10;0.10;;;2.80;99.90;;;;;;5036579;28;20201;-86
2021/01/15 12:06:12;;;;;;;0.30;0.30;;;2.70;99.90;;;;;;5035336;28;20210;-86
2021/01/15 12:08:39;;;;;;;0.40;0.40;;;2.70;99.90;;;;;;5028759;28;20206;-88
2021/01/15 12:11:07;;;;;;;0.10;0.10;;;2.70;99.90;;;;;;5025642;28;20178;-86
2021/01/15 12:13:34;;;;;;;0.30;0.30;;;2.70;99.90;;;;;;5035137;28;20179;-85
2021/01/15 12:16:00;;;;;;;0.40;0.40;;;2.90;99.90;;;;;;5036465;28;20268;-86
2021/01/15 12:18:26;;;;;;;0.20;0.20;;;3.10;99.90;;;;;;5049317;28;20190;-86
2021/01/15 12:20:51;;;;;;;0.97;0.20;;;3.00;99.90;;;;;;5046086;28;20346;-86
2021/01/15 12:23:18;;;;;;;0.23;0.23;;;2.90;99.90;;;;;;5039051;28;20185;-82
2021/01/15 12:25:44;;;;;;;0.40;0.40;;;2.90;99.90;;;;;;5034064;28;20238;-85
2021/01/15 12:28:11;;;;;;;0.90;0.30;;;2.70;99.90;;;;;;5031740;28;20190;-86
2021/01/15 12:30:37;;;;;;;0.23;0.23;;;2.80;99.90;;;;;;5032136;28;20190;-86
2021/01/15 12:33:09;;;;;;;0.23;0.23;;;2.70;99.90;;;;;;5033938;28;20205;-85
2021/01/15 12:35:35;;;;;;;0.27;0.27;;;2.80;99.90;;;;;;5044322;28;20604;-86
2021/01/15 12:38:06;;;;;;;0.23;0.23;;;2.70;99.90;;;;;;5035681;28;20217;-85
2021/01/15 12:40:32;;;;;;;0.30;0.30;;;2.60;99.90;;;;;;5032516;28;20647;-86
2021/01/15 12:42:57;;;;;;;0.20;0.20;;;2.50;99.90;;;;;;5035565;28;20245;-86
2021/01/15 12:45:23;;;;;;;0.87;0.40;;;2.60;99.90;;;;;;5032907;28;20679;-86
2021/01/15 12:47:49;;;;;;;1.17;0.57;;;2.60;99.90;;;;;;5035836;28;20175;-85
2021/01/15 12:50:14;;;;;;;1.83;0.47;;;2.70;99.90;;;;;;5034199;28;20585;-86
2021/01/15 12:52:40;;;;;;;0.50;0.50;;;2.70;99.90;;;;;;5050313;28;20189;-85
2021/01/15 12:55:06;;;;;;;0.87;0.80;;;2.70;99.90;;;;;;5042325;28;20344;-86
2021/01/15 12:57:32;;;;;;;0.57;0.57;;;2.70;99.90;;;;;;5040340;28;20195;-84
2021/01/15 12:59:57;;;;;;;0.37;0.37;;;2.70;99.90;;;;;;5044065;28;20197;-86
2021/01/15 13:02:23;;;;;;;0.40;0.40;;;2.80;99.90;;;;;;5050559;28;20278;-85